sensor_id;sensor_type;location;lat;lon;timestamp;pressure;altitude;pressure_sealevel;temperature;humidity
63447;BME280;49577;49.872;6.190;2023-04-19T00:00:13;100159.52;;;8.15;71.87
63447;BME280;49577;49.872;6.190;2023-04-19T00:02:38;100161.23;;;8.15;72.18
63447;BME280;49577;49.872;6.190;2023-04-19T00:05:06;100160.64;;;8.14;72.03
63447;BME280;49577;49.872;6.190;2023-04-19T00:07:31;100160.50;;;8.13;72.18
63447;BME280;49577;49.872;6.190;2023-04-19T00:09:57;100164.55;;;8.12;72.08
63447;BME280;49577;49.872;6.190;2023-04-19T00:12:22;100163.80;;;8.08;72.37
63447;BME280;49577;49.872;6.190;2023-04-19T00:14:47;100164.68;;;8.08;72.60
63447;BME280;49577;49.872;6.190;2023-04-19T00:17:12;100164.43;;;8.06;72.52
63447;BME280;49577;49.872;6.190;2023-04-19T00:19:38;100165.70;;;8.01;72.35
63447;BME280;49577;49.872;6.190;2023-04-19T00:22:03;100163.98;;;7.96;72.81
63447;BME280;49577;49.872;6.190;2023-04-19T00:24:29;100164.69;;;7.96;72.69
63447;BME280;49577;49.872;6.190;2023-04-19T00:26:55;100168.55;;;7.95;72.72
63447;BME280;49577;49.872;6.190;2023-04-19T00:29:21;100166.34;;;7.95;72.97
63447;BME280;49577;49.872;6.190;2023-04-19T00:31:47;100166.16;;;7.94;72.87
63447;BME280;49577;49.872;6.190;2023-04-19T00:34:12;100166.34;;;7.95;73.13
63447;BME280;49577;49.872;6.190;2023-04-19T00:36:37;100163.52;;;7.96;73.25
63447;BME280;49577;49.872;6.190;2023-04-19T00:39:03;100164.96;;;7.98;73.15
63447;BME280;49577;49.872;6.190;2023-04-19T00:41:28;100164.19;;;7.96;73.21
63447;BME280;49577;49.872;6.190;2023-04-19T00:43:53;100164.36;;;7.96;73.26
63447;BME280;49577;49.872;6.190;2023-04-19T00:46:19;100160.20;;;7.95;73.43
63447;BME280;49577;49.872;6.190;2023-04-19T00:48:44;100162.98;;;7.96;73.29
63447;BME280;49577;49.872;6.190;2023-04-19T00:51:10;100157.55;;;7.93;73.60
63447;BME280;49577;49.872;6.190;2023-04-19T00:53:36;100156.00;;;7.96;74.05
63447;BME280;49577;49.872;6.190;2023-04-19T00:56:03;100154.51;;;8.02;73.92
63447;BME280;49577;49.872;6.190;2023-04-19T00:58:29;100154.09;;;8.04;73.53
63447;BME280;49577;49.872;6.190;2023-04-19T01:00:56;100151.01;;;8.03;73.64
63447;BME280;49577;49.872;6.190;2023-04-19T01:03:21;100153.05;;;8.00;73.64
63447;BME280;49577;49.872;6.190;2023-04-19T01:05:47;100148.48;;;8.01;73.93
63447;BME280;49577;49.872;6.190;2023-04-19T01:08:13;100146.30;;;8.03;73.63
63447;BME280;49577;49.872;6.190;2023-04-19T01:10:38;100146.91;;;8.01;73.79
63447;BME280;49577;49.872;6.190;2023-04-19T01:13:04;100144.09;;;7.98;73.73
63447;BME280;49577;49.872;6.190;2023-04-19T01:15:29;100144.41;;;7.98;74.36
63447;BME280;49577;49.872;6.190;2023-04-19T01:17:56;100139.79;;;8.05;74.14
63447;BME280;49577;49.872;6.190;2023-04-19T01:20:21;100140.48;;;8.05;73.79
63447;BME280;49577;49.872;6.190;2023-04-19T01:22:46;100142.80;;;8.07;74.44
63447;BME280;49577;49.872;6.190;2023-04-19T01:25:12;100139.92;;;8.14;74.24
63447;BME280;49577;49.872;6.190;2023-04-19T01:27:37;100136.19;;;8.15;73.83
63447;BME280;49577;49.872;6.190;2023-04-19T01:30:03;100136.92;;;8.10;73.76
63447;BME280;49577;49.872;6.190;2023-04-19T01:32:28;100134.16;;;8.06;74.07
63447;BME280;49577;49.872;6.190;2023-04-19T01:34:53;100133.70;;;8.08;74.38
63447;BME280;49577;49.872;6.190;2023-04-19T01:37:19;100132.67;;;8.16;74.36
63447;BME280;49577;49.872;6.190;2023-04-19T01:39:44;100128.77;;;8.18;74.09
63447;BME280;49577;49.872;6.190;2023-04-19T01:42:09;100127.88;;;8.19;74.22
63447;BME280;49577;49.872;6.190;2023-04-19T01:44:35;100125.83;;;8.22;74.21
63447;BME280;49577;49.872;6.190;2023-04-19T01:47:00;100121.82;;;8.25;74.23
63447;BME280;49577;49.872;6.190;2023-04-19T01:49:25;100119.93;;;8.25;74.08
63447;BME280;49577;49.872;6.190;2023-04-19T01:51:51;100122.83;;;8.26;74.35
63447;BME280;49577;49.872;6.190;2023-04-19T01:54:16;100118.42;;;8.27;74.37
63447;BME280;49577;49.872;6.190;2023-04-19T01:56:41;100116.27;;;8.28;74.22
63447;BME280;49577;49.872;6.190;2023-04-19T01:59:07;100113.90;;;8.28;74.25
63447;BME280;49577;49.872;6.190;2023-04-19T02:01:32;100115.13;;;8.27;74.29
63447;BME280;49577;49.872;6.190;2023-04-19T02:03:57;100114.95;;;8.27;74.25
63447;BME280;49577;49.872;6.190;2023-04-19T02:06:23;100112.55;;;8.26;74.45
63447;BME280;49577;49.872;6.190;2023-04-19T02:08:48;100116.06;;;8.29;74.44
63447;BME280;49577;49.872;6.190;2023-04-19T02:11:13;100114.94;;;8.31;74.31
63447;BME280;49577;49.872;6.190;2023-04-19T02:13:39;100113.16;;;8.32;74.16
63447;BME280;49577;49.872;6.190;2023-04-19T02:16:04;100111.73;;;8.32;74.33
63447;BME280;49577;49.872;6.190;2023-04-19T02:18:30;100111.46;;;8.35;74.31
63447;BME280;49577;49.872;6.190;2023-04-19T02:20:57;100107.27;;;8.40;74.32
63447;BME280;49577;49.872;6.190;2023-04-19T02:23:23;100103.57;;;8.45;74.22
63447;BME280;49577;49.872;6.190;2023-04-19T02:25:49;100104.81;;;8.48;74.14
63447;BME280;49577;49.872;6.190;2023-04-19T02:28:14;100103.80;;;8.51;74.11
63447;BME280;49577;49.872;6.190;2023-04-19T02:30:40;100102.23;;;8.55;74.08
63447;BME280;49577;49.872;6.190;2023-04-19T02:33:05;100101.95;;;8.57;73.86
63447;BME280;49577;49.872;6.190;2023-04-19T02:35:30;100103.30;;;8.58;73.69
63447;BME280;49577;49.872;6.190;2023-04-19T02:37:56;100102.25;;;8.58;73.92
63447;BME280;49577;49.872;6.190;2023-04-19T02:40:21;100100.23;;;8.56;73.76
63447;BME280;49577;49.872;6.190;2023-04-19T02:42:48;100100.94;;;8.56;73.82
63447;BME280;49577;49.872;6.190;2023-04-19T02:45:13;100101.28;;;8.56;73.82
63447;BME280;49577;49.872;6.190;2023-04-19T02:47:38;100101.67;;;8.55;73.76
63447;BME280;49577;49.872;6.190;2023-04-19T02:50:04;100098.14;;;8.53;73.78
63447;BME280;49577;49.872;6.190;2023-04-19T02:52:30;100100.92;;;8.53;73.82
63447;BME280;49577;49.872;6.190;2023-04-19T02:54:55;100098.53;;;8.52;73.85
63447;BME280;49577;49.872;6.190;2023-04-19T02:57:21;100097.61;;;8.53;73.66
63447;BME280;49577;49.872;6.190;2023-04-19T02:59:46;100098.20;;;8.52;73.63
63447;BME280;49577;49.872;6.190;2023-04-19T03:02:11;100094.21;;;8.48;73.69
63447;BME280;49577;49.872;6.190;2023-04-19T03:04:36;100095.42;;;8.44;73.73
63447;BME280;49577;49.872;6.190;2023-04-19T03:07:02;100092.45;;;8.36;73.77
63447;BME280;49577;49.872;6.190;2023-04-19T03:09:27;100096.42;;;8.32;73.97
63447;BME280;49577;49.872;6.190;2023-04-19T03:11:52;100094.52;;;8.28;73.87
63447;BME280;49577;49.872;6.190;2023-04-19T03:14:18;100094.56;;;8.24;73.96
63447;BME280;49577;49.872;6.190;2023-04-19T03:16:43;100093.92;;;8.15;74.01
63447;BME280;49577;49.872;6.190;2023-04-19T03:19:09;100091.73;;;8.06;74.44
63447;BME280;49577;49.872;6.190;2023-04-19T03:21:34;100087.95;;;8.01;74.44
63447;BME280;49577;49.872;6.190;2023-04-19T03:24:00;100089.50;;;7.93;74.53
63447;BME280;49577;49.872;6.190;2023-04-19T03:26:25;100092.14;;;7.89;75.33
63447;BME280;49577;49.872;6.190;2023-04-19T03:28:51;100090.45;;;7.88;75.12
63447;BME280;49577;49.872;6.190;2023-04-19T03:31:16;100093.42;;;7.79;74.75
63447;BME280;49577;49.872;6.190;2023-04-19T03:33:42;100088.52;;;7.68;75.00
63447;BME280;49577;49.872;6.190;2023-04-19T03:36:07;100090.21;;;7.61;75.44
63447;BME280;49577;49.872;6.190;2023-04-19T03:38:33;100093.61;;;7.54;75.19
63447;BME280;49577;49.872;6.190;2023-04-19T03:40:58;100095.06;;;7.49;75.65
63447;BME280;49577;49.872;6.190;2023-04-19T03:43:23;100093.39;;;7.44;75.96
63447;BME280;49577;49.872;6.190;2023-04-19T03:45:49;100095.25;;;7.36;75.98
63447;BME280;49577;49.872;6.190;2023-04-19T03:48:14;100091.35;;;7.33;76.40
63447;BME280;49577;49.872;6.190;2023-04-19T03:50:40;100086.70;;;7.33;76.18
63447;BME280;49577;49.872;6.190;2023-04-19T03:53:05;100086.13;;;7.29;76.29
63447;BME280;49577;49.872;6.190;2023-04-19T03:55:30;100085.70;;;7.24;76.23
63447;BME280;49577;49.872;6.190;2023-04-19T03:57:56;100089.85;;;7.20;76.66
63447;BME280;49577;49.872;6.190;2023-04-19T04:00:21;100091.36;;;7.17;76.72
63447;BME280;49577;49.872;6.190;2023-04-19T04:02:46;100087.09;;;7.15;76.63
63447;BME280;49577;49.872;6.190;2023-04-19T04:05:12;100088.09;;;7.16;77.08
63447;BME280;49577;49.872;6.190;2023-04-19T04:07:37;100089.30;;;7.20;77.03
63447;BME280;49577;49.872;6.190;2023-04-19T04:10:03;100087.07;;;7.24;76.87
63447;BME280;49577;49.872;6.190;2023-04-19T04:12:29;100089.44;;;7.25;76.93
63447;BME280;49577;49.872;6.190;2023-04-19T04:14:54;100088.23;;;7.29;77.11
63447;BME280;49577;49.872;6.190;2023-04-19T04:17:19;100086.96;;;7.34;76.98
63447;BME280;49577;49.872;6.190;2023-04-19T04:19:45;100090.48;;;7.38;76.96
63447;BME280;49577;49.872;6.190;2023-04-19T04:22:10;100090.43;;;7.40;76.99
63447;BME280;49577;49.872;6.190;2023-04-19T04:24:39;100090.81;;;7.46;76.97
63447;BME280;49577;49.872;6.190;2023-04-19T04:27:08;100095.02;;;7.54;76.77
63447;BME280;49577;49.872;6.190;2023-04-19T04:29:38;100086.38;;;7.57;76.73
63447;BME280;49577;49.872;6.190;2023-04-19T04:32:07;100081.39;;;7.60;76.85
63447;BME280;49577;49.872;6.190;2023-04-19T04:34:34;100085.04;;;7.64;76.74
63447;BME280;49577;49.872;6.190;2023-04-19T04:37:00;100088.27;;;7.66;76.67
63447;BME280;49577;49.872;6.190;2023-04-19T04:39:27;100089.60;;;7.67;76.60
63447;BME280;49577;49.872;6.190;2023-04-19T04:41:52;100093.98;;;7.70;76.49
63447;BME280;49577;49.872;6.190;2023-04-19T04:44:18;100091.23;;;7.69;76.52
63447;BME280;49577;49.872;6.190;2023-04-19T04:46:44;100093.73;;;7.72;76.47
63447;BME280;49577;49.872;6.190;2023-04-19T04:49:10;100093.48;;;7.74;76.34
63447;BME280;49577;49.872;6.190;2023-04-19T04:51:35;100100.00;;;7.75;76.20
63447;BME280;49577;49.872;6.190;2023-04-19T04:54:01;100096.86;;;7.76;76.19
63447;BME280;49577;49.872;6.190;2023-04-19T04:56:26;100095.55;;;7.82;76.23
63447;BME280;49577;49.872;6.190;2023-04-19T04:58:51;100100.25;;;7.90;76.20
63447;BME280;49577;49.872;6.190;2023-04-19T05:01:17;100099.23;;;8.01;75.92
63447;BME280;49577;49.872;6.190;2023-04-19T05:03:44;100101.10;;;8.10;75.66
63447;BME280;49577;49.872;6.190;2023-04-19T05:06:09;100101.62;;;8.18;75.59
63447;BME280;49577;49.872;6.190;2023-04-19T05:08:34;100098.20;;;8.24;75.43
63447;BME280;49577;49.872;6.190;2023-04-19T05:11:00;100096.71;;;8.30;75.36
63447;BME280;49577;49.872;6.190;2023-04-19T05:13:25;100093.73;;;8.39;75.08
63447;BME280;49577;49.872;6.190;2023-04-19T05:15:50;100093.79;;;8.46;74.89
63447;BME280;49577;49.872;6.190;2023-04-19T05:18:16;100098.98;;;8.50;74.83
63447;BME280;49577;49.872;6.190;2023-04-19T05:20:41;100098.98;;;8.54;74.72
63447;BME280;49577;49.872;6.190;2023-04-19T05:23:07;100100.09;;;8.56;74.54
63447;BME280;49577;49.872;6.190;2023-04-19T05:25:35;100099.52;;;8.60;74.29
63447;BME280;49577;49.872;6.190;2023-04-19T05:28:00;100100.11;;;8.67;74.23
63447;BME280;49577;49.872;6.190;2023-04-19T05:30:27;100100.65;;;8.70;74.34
63447;BME280;49577;49.872;6.190;2023-04-19T05:32:53;100100.85;;;8.73;74.25
63447;BME280;49577;49.872;6.190;2023-04-19T05:35:18;100098.58;;;8.77;73.93
63447;BME280;49577;49.872;6.190;2023-04-19T05:37:44;100101.36;;;8.81;73.97
63447;BME280;49577;49.872;6.190;2023-04-19T05:40:09;100097.52;;;8.84;73.98
63447;BME280;49577;49.872;6.190;2023-04-19T05:42:35;100101.31;;;8.89;73.89
63447;BME280;49577;49.872;6.190;2023-04-19T05:45:00;100100.52;;;8.95;73.94
63447;BME280;49577;49.872;6.190;2023-04-19T05:47:26;100099.80;;;8.99;73.50
63447;BME280;49577;49.872;6.190;2023-04-19T05:49:51;100101.76;;;9.02;73.33
63447;BME280;49577;49.872;6.190;2023-04-19T05:52:16;100105.80;;;9.04;73.27
63447;BME280;49577;49.872;6.190;2023-04-19T05:54:42;100105.86;;;9.07;72.97
63447;BME280;49577;49.872;6.190;2023-04-19T05:57:08;100109.79;;;9.08;72.99
63447;BME280;49577;49.872;6.190;2023-04-19T05:59:33;100110.90;;;9.11;73.07
63447;BME280;49577;49.872;6.190;2023-04-19T06:01:59;100110.21;;;9.14;73.03
63447;BME280;49577;49.872;6.190;2023-04-19T06:04:25;100109.00;;;9.17;73.01
63447;BME280;49577;49.872;6.190;2023-04-19T06:06:50;100114.25;;;9.21;72.72
63447;BME280;49577;49.872;6.190;2023-04-19T06:09:16;100121.23;;;9.24;72.89
63447;BME280;49577;49.872;6.190;2023-04-19T06:11:43;100119.66;;;9.27;72.74
63447;BME280;49577;49.872;6.190;2023-04-19T06:14:09;100124.04;;;9.30;72.71
63447;BME280;49577;49.872;6.190;2023-04-19T06:16:34;100122.35;;;9.37;72.84
63447;BME280;49577;49.872;6.190;2023-04-19T06:19:00;100122.96;;;9.42;72.42
63447;BME280;49577;49.872;6.190;2023-04-19T06:21:25;100118.23;;;9.46;72.66
63447;BME280;49577;49.872;6.190;2023-04-19T06:23:51;100123.20;;;9.51;72.36
63447;BME280;49577;49.872;6.190;2023-04-19T06:26:16;100119.02;;;9.54;72.40
63447;BME280;49577;49.872;6.190;2023-04-19T06:28:41;100118.63;;;9.59;72.32
63447;BME280;49577;49.872;6.190;2023-04-19T06:31:07;100121.50;;;9.64;72.33
63447;BME280;49577;49.872;6.190;2023-04-19T06:33:32;100127.87;;;9.69;71.87
63447;BME280;49577;49.872;6.190;2023-04-19T06:35:57;100126.83;;;9.69;71.49
63447;BME280;49577;49.872;6.190;2023-04-19T06:38:22;100126.77;;;9.70;71.76
63447;BME280;49577;49.872;6.190;2023-04-19T06:40:48;100131.04;;;9.72;71.95
63447;BME280;49577;49.872;6.190;2023-04-19T06:43:13;100129.48;;;9.75;71.67
63447;BME280;49577;49.872;6.190;2023-04-19T06:45:38;100124.89;;;9.76;71.64
63447;BME280;49577;49.872;6.190;2023-04-19T06:48:04;100126.20;;;9.78;71.59
63447;BME280;49577;49.872;6.190;2023-04-19T06:50:29;100130.86;;;9.79;71.52
63447;BME280;49577;49.872;6.190;2023-04-19T06:52:54;100129.11;;;9.82;71.71
63447;BME280;49577;49.872;6.190;2023-04-19T06:55:20;100124.71;;;9.86;71.73
63447;BME280;49577;49.872;6.190;2023-04-19T06:57:45;100126.41;;;9.87;71.30
63447;BME280;49577;49.872;6.190;2023-04-19T07:00:11;100133.33;;;9.88;71.45
63447;BME280;49577;49.872;6.190;2023-04-19T07:02:38;100133.06;;;9.90;71.17
63447;BME280;49577;49.872;6.190;2023-04-19T07:05:03;100130.15;;;9.93;71.10
63447;BME280;49577;49.872;6.190;2023-04-19T07:07:29;100129.64;;;9.96;71.28
63447;BME280;49577;49.872;6.190;2023-04-19T07:09:54;100126.83;;;10.00;71.21
63447;BME280;49577;49.872;6.190;2023-04-19T07:12:19;100132.88;;;10.04;71.13
63447;BME280;49577;49.872;6.190;2023-04-19T07:14:45;100128.65;;;10.08;71.17
63447;BME280;49577;49.872;6.190;2023-04-19T07:17:10;100130.30;;;10.13;70.89
63447;BME280;49577;49.872;6.190;2023-04-19T07:19:37;100131.16;;;10.17;70.74
63447;BME280;49577;49.872;6.190;2023-04-19T07:22:02;100130.58;;;10.21;70.84
63447;BME280;49577;49.872;6.190;2023-04-19T07:24:27;100126.73;;;10.28;70.77
63447;BME280;49577;49.872;6.190;2023-04-19T07:26:54;100126.59;;;10.38;70.57
63447;BME280;49577;49.872;6.190;2023-04-19T07:29:20;100126.83;;;10.46;70.24
63447;BME280;49577;49.872;6.190;2023-04-19T07:31:46;100119.63;;;10.51;69.85
63447;BME280;49577;49.872;6.190;2023-04-19T07:34:11;100122.85;;;10.55;69.95
63447;BME280;49577;49.872;6.190;2023-04-19T07:36:37;100127.73;;;10.65;70.02
63447;BME280;49577;49.872;6.190;2023-04-19T07:39:03;100124.58;;;10.77;69.99
63447;BME280;49577;49.872;6.190;2023-04-19T07:41:30;100121.05;;;10.97;69.75
63447;BME280;49577;49.872;6.190;2023-04-19T07:43:55;100122.30;;;11.18;69.26
63447;BME280;49577;49.872;6.190;2023-04-19T07:46:21;100123.61;;;11.41;68.85
63447;BME280;49577;49.872;6.190;2023-04-19T07:48:46;100119.52;;;11.51;67.66
63447;BME280;49577;49.872;6.190;2023-04-19T07:51:13;100116.02;;;11.57;67.24
63447;BME280;49577;49.872;6.190;2023-04-19T07:53:40;100113.94;;;11.66;66.63
63447;BME280;49577;49.872;6.190;2023-04-19T07:56:07;100115.13;;;11.72;66.53
63447;BME280;49577;49.872;6.190;2023-04-19T07:58:34;100115.33;;;11.78;66.42
63447;BME280;49577;49.872;6.190;2023-04-19T08:00:59;100112.44;;;11.83;66.18
63447;BME280;49577;49.872;6.190;2023-04-19T08:03:25;100112.99;;;11.88;65.67
63447;BME280;49577;49.872;6.190;2023-04-19T08:05:51;100106.32;;;11.91;65.69
63447;BME280;49577;49.872;6.190;2023-04-19T08:08:16;100103.13;;;12.01;65.90
63447;BME280;49577;49.872;6.190;2023-04-19T08:10:42;100107.17;;;12.09;65.00
63447;BME280;49577;49.872;6.190;2023-04-19T08:13:07;100104.35;;;12.10;64.82
63447;BME280;49577;49.872;6.190;2023-04-19T08:15:33;100104.61;;;12.11;64.85
63447;BME280;49577;49.872;6.190;2023-04-19T08:17:58;100103.17;;;12.14;64.48
63447;BME280;49577;49.872;6.190;2023-04-19T08:20:24;100101.24;;;12.17;64.20
63447;BME280;49577;49.872;6.190;2023-04-19T08:22:50;100094.89;;;12.21;64.23
63447;BME280;49577;49.872;6.190;2023-04-19T08:25:15;100097.32;;;12.30;63.97
63447;BME280;49577;49.872;6.190;2023-04-19T08:27:41;100095.95;;;12.40;63.96
63447;BME280;49577;49.872;6.190;2023-04-19T08:30:08;100097.52;;;12.47;63.47
63447;BME280;49577;49.872;6.190;2023-04-19T08:32:35;100095.69;;;12.50;63.16
63447;BME280;49577;49.872;6.190;2023-04-19T08:35:01;100095.63;;;12.57;63.16
63447;BME280;49577;49.872;6.190;2023-04-19T08:37:26;100092.75;;;12.69;62.67
63447;BME280;49577;49.872;6.190;2023-04-19T08:39:51;100092.41;;;12.85;62.40
63447;BME280;49577;49.872;6.190;2023-04-19T08:42:17;100091.39;;;12.99;61.17
63447;BME280;49577;49.872;6.190;2023-04-19T08:44:44;100095.00;;;13.02;61.43
63447;BME280;49577;49.872;6.190;2023-04-19T08:47:10;100090.77;;;13.10;60.75
63447;BME280;49577;49.872;6.190;2023-04-19T08:49:38;100089.98;;;13.14;60.55
63447;BME280;49577;49.872;6.190;2023-04-19T08:52:05;100086.98;;;13.20;60.37
63447;BME280;49577;49.872;6.190;2023-04-19T08:54:30;100088.22;;;13.28;59.95
63447;BME280;49577;49.872;6.190;2023-04-19T08:56:59;100091.14;;;13.37;59.66
63447;BME280;49577;49.872;6.190;2023-04-19T08:59:26;100088.13;;;13.43;59.94
63447;BME280;49577;49.872;6.190;2023-04-19T09:01:53;100088.27;;;13.54;59.42
63447;BME280;49577;49.872;6.190;2023-04-19T09:04:19;100088.92;;;13.70;59.33
63447;BME280;49577;49.872;6.190;2023-04-19T09:06:45;100081.91;;;13.85;58.28
63447;BME280;49577;49.872;6.190;2023-04-19T09:09:18;100082.52;;;13.94;58.36
63447;BME280;49577;49.872;6.190;2023-04-19T09:11:44;100077.78;;;14.07;58.06
63447;BME280;49577;49.872;6.190;2023-04-19T09:14:12;100073.64;;;14.26;57.77
63447;BME280;49577;49.872;6.190;2023-04-19T09:16:37;100069.48;;;14.60;57.49
63447;BME280;49577;49.872;6.190;2023-04-19T09:19:04;100065.21;;;14.99;57.45
63447;BME280;49577;49.872;6.190;2023-04-19T09:21:31;100063.95;;;15.37;56.00
63447;BME280;49577;49.872;6.190;2023-04-19T09:23:57;100054.29;;;16.10;54.93
63447;BME280;49577;49.872;6.190;2023-04-19T09:26:23;100044.81;;;16.70;52.46
63447;BME280;49577;49.872;6.190;2023-04-19T09:29:03;100047.30;;;17.19;51.30
63447;BME280;49577;49.872;6.190;2023-04-19T09:31:33;100053.10;;;17.80;50.06
63447;BME280;49577;49.872;6.190;2023-04-19T09:36:38;100047.95;;;17.95;49.26
63447;BME280;49577;49.872;6.190;2023-04-19T09:39:03;100044.56;;;17.98;48.83
63447;BME280;49577;49.872;6.190;2023-04-19T09:41:30;100034.18;;;18.11;48.60
63447;BME280;49577;49.872;6.190;2023-04-19T09:44:09;100035.80;;;18.19;47.25
63447;BME280;49577;49.872;6.190;2023-04-19T09:46:36;100028.83;;;18.29;47.09
63447;BME280;49577;49.872;6.190;2023-04-19T09:51:49;100020.77;;;18.63;46.49
63447;BME280;49577;49.872;6.190;2023-04-19T09:54:17;100012.25;;;19.06;46.22
63447;BME280;49577;49.872;6.190;2023-04-19T09:56:43;100006.25;;;19.44;44.55
63447;BME280;49577;49.872;6.190;2023-04-19T09:59:09;100001.65;;;20.00;43.64
63447;BME280;49577;49.872;6.190;2023-04-19T10:01:54;99997.85;;;20.17;42.79
63447;BME280;49577;49.872;6.190;2023-04-19T10:04:20;99991.77;;;19.96;42.15
63447;BME280;49577;49.872;6.190;2023-04-19T10:06:53;99996.33;;;19.67;41.94
63447;BME280;49577;49.872;6.190;2023-04-19T10:09:20;99999.64;;;19.64;41.83
63447;BME280;49577;49.872;6.190;2023-04-19T10:11:48;100001.23;;;19.29;42.14
63447;BME280;49577;49.872;6.190;2023-04-19T10:14:15;100000.63;;;18.80;43.37
63447;BME280;49577;49.872;6.190;2023-04-19T10:16:40;99997.96;;;18.28;43.40
63447;BME280;49577;49.872;6.190;2023-04-19T10:19:08;99999.09;;;17.92;44.47
63447;BME280;49577;49.872;6.190;2023-04-19T10:21:34;99994.12;;;17.78;44.87
63447;BME280;49577;49.872;6.190;2023-04-19T10:24:00;99988.77;;;18.06;44.95
63447;BME280;49577;49.872;6.190;2023-04-19T10:26:26;99984.08;;;18.89;43.57
63447;BME280;49577;49.872;6.190;2023-04-19T10:28:56;99973.95;;;19.95;42.56
63447;BME280;49577;49.872;6.190;2023-04-19T10:31:24;99969.28;;;21.25;40.27
63447;BME280;49577;49.872;6.190;2023-04-19T10:33:50;99968.40;;;22.50;38.51
63447;BME280;49577;49.872;6.190;2023-04-19T10:36:16;99966.86;;;23.14;37.34
63447;BME280;49577;49.872;6.190;2023-04-19T10:38:43;99963.02;;;22.86;37.23
63447;BME280;49577;49.872;6.190;2023-04-19T10:41:11;99958.38;;;22.39;37.56
63447;BME280;49577;49.872;6.190;2023-04-19T10:44:24;99961.58;;;21.93;37.74
63447;BME280;49577;49.872;6.190;2023-04-19T10:48:59;99959.66;;;20.87;38.09
63447;BME280;49577;49.872;6.190;2023-04-19T10:51:25;99954.64;;;20.42;38.77
63447;BME280;49577;49.872;6.190;2023-04-19T10:54:02;99953.44;;;20.56;38.68
63447;BME280;49577;49.872;6.190;2023-04-19T11:01:31;99935.69;;;21.97;37.06
63447;BME280;49577;49.872;6.190;2023-04-19T11:03:58;99926.81;;;22.31;36.59
63447;BME280;49577;49.872;6.190;2023-04-19T11:06:23;99929.34;;;22.19;36.38
63447;BME280;49577;49.872;6.190;2023-04-19T11:08:51;99924.05;;;21.96;36.67
63447;BME280;49577;49.872;6.190;2023-04-19T11:11:17;99920.13;;;21.59;36.99
63447;BME280;49577;49.872;6.190;2023-04-19T11:13:43;99912.64;;;21.14;37.60
63447;BME280;49577;49.872;6.190;2023-04-19T11:16:09;99908.94;;;20.72;38.00
63447;BME280;49577;49.872;6.190;2023-04-19T11:18:34;99903.20;;;20.24;38.69
63447;BME280;49577;49.872;6.190;2023-04-19T11:21:00;99902.93;;;19.68;39.19
63447;BME280;49577;49.872;6.190;2023-04-19T11:23:25;99902.41;;;19.07;39.93
63447;BME280;49577;49.872;6.190;2023-04-19T11:25:51;99903.77;;;18.75;40.80
63447;BME280;49577;49.872;6.190;2023-04-19T11:28:17;99904.73;;;18.52;41.36
63447;BME280;49577;49.872;6.190;2023-04-19T11:30:43;99899.63;;;18.25;41.72
63447;BME280;49577;49.872;6.190;2023-04-19T11:33:11;99895.08;;;18.09;42.37
63447;BME280;49577;49.872;6.190;2023-04-19T11:35:36;99893.20;;;17.80;43.01
63447;BME280;49577;49.872;6.190;2023-04-19T11:38:01;99890.73;;;17.46;43.62
63447;BME280;49577;49.872;6.190;2023-04-19T11:40:29;99887.56;;;17.19;44.14
63447;BME280;49577;49.872;6.190;2023-04-19T11:43:02;99886.08;;;16.97;44.46
63447;BME280;49577;49.872;6.190;2023-04-19T11:45:32;99876.92;;;16.88;44.96
63447;BME280;49577;49.872;6.190;2023-04-19T11:47:59;99875.16;;;16.88;45.32
63447;BME280;49577;49.872;6.190;2023-04-19T11:50:36;99870.55;;;16.78;45.83
63447;BME280;49577;49.872;6.190;2023-04-19T11:53:29;99866.65;;;16.57;45.94
63447;BME280;49577;49.872;6.190;2023-04-19T11:56:05;99862.67;;;16.33;46.69
63447;BME280;49577;49.872;6.190;2023-04-19T11:58:42;99858.64;;;16.18;47.53
63447;BME280;49577;49.872;6.190;2023-04-19T12:01:17;99851.71;;;16.05;48.12
63447;BME280;49577;49.872;6.190;2023-04-19T12:03:53;99855.94;;;15.99;48.37
63447;BME280;49577;49.872;6.190;2023-04-19T12:06:25;99853.36;;;15.94;48.57
63447;BME280;49577;49.872;6.190;2023-04-19T12:08:53;99855.06;;;15.92;49.01
63447;BME280;49577;49.872;6.190;2023-04-19T12:11:21;99852.02;;;15.86;49.20
63447;BME280;49577;49.872;6.190;2023-04-19T12:13:48;99848.38;;;15.75;48.77
63447;BME280;49577;49.872;6.190;2023-04-19T12:16:13;99845.08;;;15.65;49.08
63447;BME280;49577;49.872;6.190;2023-04-19T12:18:49;99852.80;;;15.59;49.32
63447;BME280;49577;49.872;6.190;2023-04-19T12:21:26;99848.16;;;15.53;49.27
63447;BME280;49577;49.872;6.190;2023-04-19T12:23:55;99847.54;;;15.45;49.73
63447;BME280;49577;49.872;6.190;2023-04-19T12:26:21;99845.56;;;15.32;49.48
63447;BME280;49577;49.872;6.190;2023-04-19T12:28:46;99846.84;;;15.18;49.67
63447;BME280;49577;49.872;6.190;2023-04-19T12:31:11;99846.27;;;15.07;50.31
63447;BME280;49577;49.872;6.190;2023-04-19T12:33:37;99839.02;;;14.97;49.99
63447;BME280;49577;49.872;6.190;2023-04-19T12:36:02;99838.71;;;14.91;50.12
63447;BME280;49577;49.872;6.190;2023-04-19T12:38:27;99835.11;;;14.90;50.40
63447;BME280;49577;49.872;6.190;2023-04-19T12:40:52;99833.14;;;14.86;50.59
63447;BME280;49577;49.872;6.190;2023-04-19T12:43:18;99835.80;;;14.81;50.58
63447;BME280;49577;49.872;6.190;2023-04-19T12:45:43;99836.09;;;14.77;50.56
63447;BME280;49577;49.872;6.190;2023-04-19T12:48:08;99837.52;;;14.77;50.93
63447;BME280;49577;49.872;6.190;2023-04-19T12:50:34;99832.35;;;14.76;50.74
63447;BME280;49577;49.872;6.190;2023-04-19T12:52:59;99833.42;;;14.71;50.55
63447;BME280;49577;49.872;6.190;2023-04-19T12:55:25;99826.80;;;14.70;51.09
63447;BME280;49577;49.872;6.190;2023-04-19T12:57:50;99828.92;;;14.75;50.69
63447;BME280;49577;49.872;6.190;2023-04-19T13:00:16;99824.32;;;14.75;50.53
63447;BME280;49577;49.872;6.190;2023-04-19T13:02:41;99818.06;;;14.76;50.88
63447;BME280;49577;49.872;6.190;2023-04-19T13:05:07;99815.12;;;14.82;51.23